Time;durP1;ratioP1;P1;durP2;ratioP2;P2;SDS_P1;SDS_P2;PMS_P1;PMS_P2;Temp;Humidity;BMP_temperature;BMP_pressure;BME280_temperature;BME280_humidity;BME280_pressure;Samples;Min_cycle;Max_cycle;Signal;HPM_P1;HPM_P2
2023/10/20 00:00:14;;;;;;;18.02;16.23;;;9.10;99.90;;;;;;5122676;27;20247;-80
2023/10/20 00:02:42;;;;;;;16.15;14.50;;;9.20;99.90;;;;;;5129772;27;20244;-83
2023/10/20 00:05:10;;;;;;;19.45;17.48;;;9.20;99.90;;;;;;5134797;27;20256;-80
2023/10/20 00:07:38;;;;;;;18.58;15.45;;;9.10;99.90;;;;;;5130473;27;20634;-83
2023/10/20 00:10:09;;;;;;;18.35;16.52;;;9.20;99.90;;;;;;5122993;27;20744;-83
2023/10/20 00:12:36;;;;;;;17.92;15.68;;;9.10;99.90;;;;;;5132499;27;20230;-83
2023/10/20 00:15:03;;;;;;;18.15;16.25;;;9.20;99.90;;;;;;5138069;27;20283;-83
2023/10/20 00:17:33;;;;;;;17.25;15.07;;;9.20;99.90;;;;;;5136955;27;20228;-83
2023/10/20 00:20:00;;;;;;;16.95;15.20;;;9.30;99.90;;;;;;5136175;27;20248;-81
2023/10/20 00:22:28;;;;;;;15.82;14.30;;;9.20;99.90;;;;;;5123083;27;20275;-83
2023/10/20 00:24:55;;;;;;;16.92;15.27;;;9.20;99.90;;;;;;5115510;27;20222;-83
2023/10/20 00:27:22;;;;;;;14.10;12.70;;;9.20;99.90;;;;;;5120082;27;20305;-81
2023/10/20 00:29:49;;;;;;;16.75;14.77;;;9.10;99.90;;;;;;5116167;27;20331;-81
2023/10/20 00:32:19;;;;;;;16.52;14.82;;;9.20;99.90;;;;;;5119316;27;20222;-84
2023/10/20 00:34:46;;;;;;;14.77;13.23;;;9.20;99.90;;;;;;5134496;27;20712;-81
2023/10/20 00:37:13;;;;;;;15.88;14.38;;;9.20;99.90;;;;;;5133286;27;20236;-81
2023/10/20 00:39:43;;;;;;;13.85;12.43;;;9.30;99.90;;;;;;5126020;27;20219;-81
2023/10/20 00:42:10;;;;;;;13.32;12.07;;;9.30;99.90;;;;;;5134527;27;20222;-82
2023/10/20 00:44:38;;;;;;;15.80;14.30;;;9.30;99.90;;;;;;5122384;27;20230;-80
2023/10/20 00:47:09;;;;;;;15.95;14.35;;;9.20;99.90;;;;;;5114331;27;20298;-80
2023/10/20 00:49:37;;;;;;;14.52;12.80;;;9.20;99.90;;;;;;5118758;27;20229;-81
2023/10/20 00:52:04;;;;;;;14.55;13.15;;;9.20;99.90;;;;;;5128824;27;20555;-84
2023/10/20 00:54:32;;;;;;;14.98;13.55;;;9.20;99.90;;;;;;5115935;28;20320;-82
2023/10/20 00:57:01;;;;;;;13.48;12.13;;;9.10;99.90;;;;;;5115475;28;20222;-81
2023/10/20 00:59:31;;;;;;;14.35;13.00;;;9.20;99.90;;;;;;5116793;27;20226;-82
2023/10/20 01:01:58;;;;;;;15.07;13.57;;;9.20;99.90;;;;;;5152691;27;20227;-82
2023/10/20 01:04:28;;;;;;;15.95;14.38;;;9.20;99.90;;;;;;5144836;27;20577;-81
2023/10/20 01:06:55;;;;;;;14.50;13.18;;;9.10;99.90;;;;;;5156250;27;20681;-83
2023/10/20 01:09:25;;;;;;;13.70;12.30;;;9.20;99.90;;;;;;5155998;27;20239;-82
2023/10/20 01:11:55;;;;;;;14.50;13.00;;;9.20;99.90;;;;;;5156423;27;20605;-81
2023/10/20 01:14:23;;;;;;;15.25;13.73;;;9.10;99.90;;;;;;5148654;27;20218;-82
2023/10/20 01:16:50;;;;;;;14.13;12.60;;;9.10;99.90;;;;;;5135488;27;20217;-83
2023/10/20 01:19:17;;;;;;;12.77;11.63;;;9.20;99.90;;;;;;5134376;27;20690;-83
2023/10/20 01:21:44;;;;;;;13.98;12.68;;;9.20;99.90;;;;;;5132706;27;20605;-81
2023/10/20 01:24:12;;;;;;;12.57;11.45;;;9.20;99.90;;;;;;5113091;28;20313;-83
2023/10/20 01:26:43;;;;;;;13.52;12.27;;;9.20;99.90;;;;;;5114589;28;20231;-81
2023/10/20 01:29:12;;;;;;;13.85;12.23;;;9.30;99.90;;;;;;5113733;28;20699;-81
2023/10/20 01:31:39;;;;;;;12.13;11.10;;;9.30;99.90;;;;;;5101707;28;20222;-83
2023/10/20 01:34:06;;;;;;;12.55;11.30;;;9.30;99.90;;;;;;5113753;28;20230;-85
2023/10/20 01:36:33;;;;;;;11.98;10.80;;;9.20;99.90;;;;;;5113793;28;20230;-81
2023/10/20 01:39:00;;;;;;;12.05;10.88;;;9.30;99.90;;;;;;5114307;28;20457;-81
2023/10/20 01:41:29;;;;;;;10.75;9.70;;;9.30;99.90;;;;;;5102595;28;20222;-80
2023/10/20 01:43:55;;;;;;;11.55;10.35;;;9.30;99.90;;;;;;5113366;28;20570;-81
2023/10/20 01:46:23;;;;;;;10.77;9.70;;;9.20;99.90;;;;;;5101397;28;20234;-81
2023/10/20 01:48:50;;;;;;;12.05;10.90;;;9.30;99.90;;;;;;5113178;28;20295;-83
2023/10/20 01:51:17;;;;;;;10.40;9.15;;;9.20;99.90;;;;;;5112975;28;20222;-81
2023/10/20 01:53:44;;;;;;;10.68;9.70;;;9.30;99.90;;;;;;5115237;28;20214;-80
2023/10/20 01:56:19;;;;;;;10.65;9.65;;;9.30;99.90;;;;;;5115413;28;20222;-80
2023/10/20 01:58:47;;;;;;;11.40;10.35;;;9.30;99.90;;;;;;5085937;28;20703;-80
2023/10/20 02:01:14;;;;;;;10.70;9.70;;;9.30;99.90;;;;;;5128062;27;20230;-83
2023/10/20 02:03:41;;;;;;;11.50;10.20;;;9.30;99.90;;;;;;5133817;27;20237;-80
2023/10/20 02:06:09;;;;;;;11.15;10.02;;;9.30;99.90;;;;;;5115790;27;20287;-80
2023/10/20 02:08:39;;;;;;;9.13;8.20;;;9.30;99.90;;;;;;5113495;28;20287;-80
2023/10/20 02:11:09;;;;;;;10.30;9.27;;;9.20;99.90;;;;;;5113695;28;20237;-81
2023/10/20 02:13:36;;;;;;;9.40;8.50;;;9.20;99.90;;;;;;5113570;28;20331;-83
2023/10/20 02:16:18;;;;;;;10.27;8.43;;;9.10;99.90;;;;;;5112796;28;20728;-84
2023/10/20 02:18:45;;;;;;;9.40;8.60;;;9.10;99.90;;;;;;5111976;28;20232;-83
2023/10/20 02:21:12;;;;;;;9.85;8.55;;;9.10;99.90;;;;;;5113309;28;20630;-85
2023/10/20 02:23:40;;;;;;;10.20;9.20;;;9.20;99.90;;;;;;5113117;28;20226;-81
2023/10/20 02:26:09;;;;;;;9.43;8.40;;;9.20;99.90;;;;;;5113759;28;20318;-80
2023/10/20 02:28:37;;;;;;;9.02;8.23;;;9.30;99.90;;;;;;5113036;28;20703;-81
2023/10/20 02:31:14;;;;;;;8.40;7.63;;;9.20;99.90;;;;;;5113770;28;20230;-83
2023/10/20 02:33:41;;;;;;;7.57;6.88;;;9.20;99.90;;;;;;5112822;28;20218;-83
2023/10/20 02:36:08;;;;;;;9.20;8.30;;;9.10;99.90;;;;;;5112895;28;20253;-80
2023/10/20 02:38:35;;;;;;;8.02;7.28;;;9.10;99.90;;;;;;5112964;28;20231;-80
2023/10/20 02:41:03;;;;;;;7.80;6.65;;;9.20;99.90;;;;;;5113367;28;20237;-83
2023/10/20 02:43:31;;;;;;;6.35;5.82;;;9.20;99.90;;;;;;5112985;28;20296;-82
2023/10/20 02:45:58;;;;;;;6.72;6.03;;;9.20;99.90;;;;;;5113339;28;20230;-82
2023/10/20 02:48:27;;;;;;;6.53;5.93;;;9.20;99.90;;;;;;5113396;28;20309;-80
2023/10/20 02:50:54;;;;;;;6.28;5.78;;;9.10;99.90;;;;;;5095981;28;20627;-83
2023/10/20 02:53:21;;;;;;;6.03;5.53;;;9.20;99.90;;;;;;5113111;28;20292;-82
2023/10/20 02:55:53;;;;;;;6.68;6.07;;;9.20;99.90;;;;;;5113946;28;20229;-84
2023/10/20 02:58:20;;;;;;;6.38;5.80;;;9.20;99.90;;;;;;5116666;28;20238;-83
2023/10/20 03:00:50;;;;;;;5.90;5.38;;;9.20;99.90;;;;;;5117351;28;20233;-84
2023/10/20 03:03:19;;;;;;;6.55;5.95;;;9.20;99.90;;;;;;5117459;28;20222;-83
2023/10/20 03:05:50;;;;;;;7.10;6.40;;;9.20;99.90;;;;;;5117207;28;20322;-83
2023/10/20 03:08:17;;;;;;;5.00;4.53;;;9.20;99.90;;;;;;5116974;28;20668;-84
2023/10/20 03:10:44;;;;;;;6.43;5.82;;;9.20;99.90;;;;;;5106068;28;20976;-84
2023/10/20 03:13:11;;;;;;;6.40;5.80;;;9.10;99.90;;;;;;5116728;28;20230;-84
2023/10/20 03:15:38;;;;;;;6.13;5.53;;;9.00;99.90;;;;;;5116372;28;20238;-83
2023/10/20 03:18:44;;;;;;;5.50;5.10;;;9.10;99.90;;;;;;5112804;28;20227;-83
2023/10/20 03:21:14;;;;;;;5.70;5.10;;;8.90;99.90;;;;;;5111679;28;20230;-83
2023/10/20 03:23:43;;;;;;;5.38;4.88;;;8.90;99.90;;;;;;5118186;28;20229;-84
2023/10/20 03:26:11;;;;;;;5.95;5.13;;;8.90;99.90;;;;;;5116477;28;20356;-83
2023/10/20 03:28:39;;;;;;;7.00;6.30;;;8.90;99.90;;;;;;5117321;28;20219;-84
2023/10/20 03:31:06;;;;;;;6.25;5.65;;;8.90;99.90;;;;;;5117251;28;20306;-83
2023/10/20 03:33:36;;;;;;;6.53;5.93;;;8.80;99.90;;;;;;5115849;28;20305;-83
2023/10/20 03:36:05;;;;;;;6.75;6.10;;;8.90;99.90;;;;;;5116009;28;20253;-84
2023/10/20 03:38:37;;;;;;;6.38;5.75;;;8.80;99.90;;;;;;5116005;28;20268;-83
2023/10/20 03:41:06;;;;;;;6.28;5.60;;;8.80;99.90;;;;;;5116561;28;20242;-84
2023/10/20 03:43:34;;;;;;;5.50;5.07;;;8.80;99.90;;;;;;5116171;28;20257;-83
2023/10/20 03:46:02;;;;;;;6.65;5.57;;;8.80;99.90;;;;;;5116033;28;20238;-83
2023/10/20 03:48:29;;;;;;;5.50;5.00;;;8.90;99.90;;;;;;5105895;28;20229;-83
2023/10/20 03:50:58;;;;;;;5.95;5.35;;;8.90;99.90;;;;;;5116597;28;20680;-83
2023/10/20 03:53:28;;;;;;;6.80;6.03;;;8.80;99.90;;;;;;5115329;28;20318;-83
2023/10/20 03:56:00;;;;;;;5.90;5.40;;;8.80;99.90;;;;;;5116779;28;20237;-84
2023/10/20 03:58:29;;;;;;;6.20;5.50;;;8.80;99.90;;;;;;5105761;28;20219;-83
2023/10/20 04:00:57;;;;;;;6.22;5.65;;;8.80;99.90;;;;;;5116083;28;20223;-83
2023/10/20 04:03:24;;;;;;;7.65;5.53;;;8.80;99.90;;;;;;5116134;28;20238;-83
2023/10/20 04:05:51;;;;;;;7.50;5.93;;;8.80;99.90;;;;;;5117183;28;20317;-83
2023/10/20 04:08:21;;;;;;;6.82;6.22;;;8.80;99.90;;;;;;5116679;28;20600;-82
2023/10/20 04:10:51;;;;;;;5.75;5.25;;;8.80;99.90;;;;;;5112201;28;20573;-83
2023/10/20 04:13:19;;;;;;;7.10;5.50;;;8.80;99.90;;;;;;5118008;28;20714;-82
2023/10/20 04:15:49;;;;;;;6.00;5.50;;;8.70;99.90;;;;;;5116129;28;20305;-81
2023/10/20 04:18:17;;;;;;;6.20;5.70;;;8.70;99.90;;;;;;5115202;28;20231;-84
2023/10/20 04:24:12;;;;;;;5.90;5.35;;;8.60;99.90;;;;;;5117521;28;20300;-84
2023/10/20 04:26:41;;;;;;;5.57;5.10;;;8.70;99.90;;;;;;5116798;28;20343;-83
2023/10/20 04:29:23;;;;;;;7.20;5.28;;;8.60;99.90;;;;;;5115311;28;20222;-84
2023/10/20 04:42:56;;;;;;;7.30;5.75;;;8.50;99.90;;;;;;5115192;28;20310;-80
2023/10/20 04:51:28;;;;;;;6.00;5.50;;;8.50;99.90;;;;;;5033842;28;20220;-81
2023/10/20 04:54:44;;;;;;;6.47;5.88;;;8.50;99.90;;;;;;5102487;28;20311;-81
2023/10/20 05:00:31;;;;;;;6.68;5.70;;;8.60;99.90;;;;;;5114457;28;20565;-83
2023/10/20 05:02:57;;;;;;;8.32;6.40;;;8.60;99.90;;;;;;5114863;28;20218;-83
2023/10/20 05:05:32;;;;;;;6.47;5.88;;;8.60;99.90;;;;;;5114973;28;20288;-83
2023/10/20 05:08:04;;;;;;;6.03;5.32;;;8.60;99.90;;;;;;5114632;28;20244;-83
2023/10/20 05:10:32;;;;;;;7.05;6.35;;;8.50;99.90;;;;;;5114904;28;20651;-83
2023/10/20 05:12:59;;;;;;;7.30;6.30;;;8.50;99.90;;;;;;5110888;28;20222;-83
2023/10/20 05:15:31;;;;;;;8.60;7.78;;;8.50;99.90;;;;;;5115662;28;20230;-83
2023/10/20 05:17:59;;;;;;;8.65;7.85;;;8.60;99.90;;;;;;5115233;28;20318;-83
2023/10/20 05:20:26;;;;;;;7.57;6.90;;;8.60;99.90;;;;;;5114609;28;20280;-83
2023/10/20 05:22:53;;;;;;;7.38;6.57;;;8.60;99.90;;;;;;5114441;28;20222;-83
2023/10/20 05:25:20;;;;;;;9.05;6.85;;;8.60;99.90;;;;;;5116713;28;20253;-82
2023/10/20 05:27:50;;;;;;;7.68;6.25;;;8.60;99.90;;;;;;5114143;28;20280;-83
2023/10/20 05:30:17;;;;;;;9.75;7.57;;;8.60;99.90;;;;;;5114344;28;20214;-84
2023/10/20 05:32:46;;;;;;;7.30;6.60;;;8.60;99.90;;;;;;5114239;28;20226;-83
2023/10/20 05:35:14;;;;;;;8.02;7.32;;;8.60;99.90;;;;;;5114222;28;20279;-84
2023/10/20 05:37:41;;;;;;;10.40;8.20;;;8.50;99.90;;;;;;5114716;28;20219;-83
2023/10/20 05:40:09;;;;;;;10.95;8.45;;;8.60;99.90;;;;;;5113658;28;20226;-83
2023/10/20 05:42:36;;;;;;;9.20;7.00;;;8.50;99.90;;;;;;5114809;28;20214;-83
2023/10/20 05:45:09;;;;;;;8.95;8.05;;;8.40;99.90;;;;;;5114631;28;20231;-84
2023/10/20 05:48:13;;;;;;;9.18;8.07;;;8.40;99.90;;;;;;5115455;28;20594;-83
2023/10/20 05:50:41;;;;;;;8.93;7.55;;;8.40;99.90;;;;;;5114239;28;20694;-84
2023/10/20 05:53:10;;;;;;;8.75;7.85;;;8.40;99.90;;;;;;5115515;28;20358;-83
2023/10/20 05:55:37;;;;;;;7.90;7.15;;;8.40;99.90;;;;;;5110617;28;20253;-84
2023/10/20 05:58:06;;;;;;;8.52;7.72;;;8.40;99.90;;;;;;5114966;28;20238;-83
2023/10/20 06:00:33;;;;;;;8.75;7.82;;;8.30;99.90;;;;;;5116804;28;20227;-83
2023/10/20 06:03:00;;;;;;;10.20;8.77;;;8.30;99.90;;;;;;5101854;28;20547;-80
2023/10/20 06:05:29;;;;;;;15.73;9.85;;;8.30;99.90;;;;;;5115460;28;20226;-81
2023/10/20 06:07:58;;;;;;;10.10;8.57;;;8.20;99.90;;;;;;5114219;28;20540;-81
2023/10/20 06:10:25;;;;;;;12.90;10.00;;;8.30;99.90;;;;;;5114105;28;20218;-81
2023/10/20 06:12:53;;;;;;;10.93;9.80;;;8.40;99.90;;;;;;5114312;28;20233;-81
2023/10/20 06:15:21;;;;;;;8.77;7.75;;;8.30;99.90;;;;;;5113505;28;20226;-80
2023/10/20 06:17:49;;;;;;;11.25;9.27;;;8.30;99.90;;;;;;5113313;28;20226;-80
2023/10/20 06:20:16;;;;;;;13.02;9.07;;;8.30;99.90;;;;;;5112754;28;20233;-80
2023/10/20 06:22:44;;;;;;;12.00;9.63;;;8.30;99.90;;;;;;5113664;28;20683;-81
2023/10/20 06:25:14;;;;;;;9.20;8.30;;;8.30;99.90;;;;;;5100712;28;20788;-81
2023/10/20 06:27:42;;;;;;;9.55;8.55;;;8.30;99.90;;;;;;5113354;28;20218;-81
2023/10/20 06:30:19;;;;;;;10.65;9.65;;;8.30;99.90;;;;;;5112484;28;20230;-80
2023/10/20 06:32:51;;;;;;;10.82;9.00;;;8.30;99.90;;;;;;5117293;28;20230;-83
2023/10/20 06:35:18;;;;;;;10.20;8.68;;;8.30;99.90;;;;;;5117848;28;20223;-80
2023/10/20 06:37:55;;;;;;;11.63;8.30;;;8.40;99.90;;;;;;5116829;28;20275;-83
2023/10/20 06:40:24;;;;;;;9.93;8.48;;;8.30;99.90;;;;;;5116705;28;20229;-83
2023/10/20 06:42:50;;;;;;;12.02;8.48;;;8.30;99.90;;;;;;5117538;28;20250;-83
2023/10/20 06:45:17;;;;;;;12.02;9.27;;;8.30;99.90;;;;;;5117470;28;20222;-83
2023/10/20 06:47:44;;;;;;;10.10;9.00;;;8.20;99.90;;;;;;5106621;28;20226;-83
2023/10/20 06:50:11;;;;;;;12.60;9.77;;;8.20;99.90;;;;;;5116659;28;20246;-82
2023/10/20 06:52:39;;;;;;;12.13;9.05;;;8.10;99.90;;;;;;5117536;28;20683;-83
2023/10/20 06:55:07;;;;;;;10.20;8.88;;;8.10;99.90;;;;;;5117385;28;20241;-83
2023/10/20 06:57:36;;;;;;;9.88;8.82;;;8.10;99.90;;;;;;5118144;28;20215;-83
2023/10/20 07:00:06;;;;;;;9.77;8.57;;;8.00;99.90;;;;;;5117545;28;20219;-83
2023/10/20 07:02:54;;;;;;;10.93;9.85;;;8.00;99.90;;;;;;5113601;28;20330;-83
2023/10/20 07:05:23;;;;;;;9.93;8.93;;;8.00;99.90;;;;;;5110899;28;20227;-82
2023/10/20 07:07:50;;;;;;;12.70;9.93;;;8.00;99.90;;;;;;5117226;28;20226;-83
2023/10/20 07:10:18;;;;;;;9.10;8.18;;;8.00;99.90;;;;;;5116463;28;20554;-83
2023/10/20 07:12:46;;;;;;;10.38;9.32;;;8.00;99.90;;;;;;5116718;28;20229;-82
2023/10/20 07:15:37;;;;;;;10.25;9.20;;;8.10;99.90;;;;;;5094197;28;20261;-82
2023/10/20 07:18:05;;;;;;;9.93;8.98;;;8.10;99.90;;;;;;5117134;28;20280;-83
2023/10/20 07:20:38;;;;;;;8.55;7.63;;;8.10;99.90;;;;;;5117073;28;20237;-83
2023/10/20 07:23:08;;;;;;;9.88;8.73;;;8.10;99.90;;;;;;5116416;28;20545;-83
2023/10/20 07:25:35;;;;;;;11.68;8.55;;;7.90;99.90;;;;;;5116748;28;20222;-81
2023/10/20 07:28:07;;;;;;;9.07;8.10;;;8.00;99.90;;;;;;5113523;28;20314;-80
2023/10/20 07:30:37;;;;;;;10.27;8.82;;;7.90;99.90;;;;;;5116614;28;20223;-83
2023/10/20 07:33:05;;;;;;;14.35;9.10;;;7.80;99.90;;;;;;5116959;28;20238;-81
2023/10/20 07:35:32;;;;;;;9.95;8.75;;;7.80;99.90;;;;;;5115681;28;20256;-80
2023/10/20 07:37:59;;;;;;;9.88;8.93;;;7.90;99.90;;;;;;5116534;28;20218;-80
2023/10/20 07:40:26;;;;;;;10.02;9.00;;;7.80;99.90;;;;;;5115922;28;20262;-83
2023/10/20 07:42:53;;;;;;;9.07;8.18;;;7.90;99.90;;;;;;5115609;28;20560;-84
2023/10/20 07:45:22;;;;;;;9.10;8.13;;;7.80;99.90;;;;;;5117001;28;20309;-83
2023/10/20 07:47:49;;;;;;;10.13;7.68;;;7.80;99.90;;;;;;5116746;28;20234;-84
2023/10/20 07:50:17;;;;;;;9.23;8.27;;;7.70;99.90;;;;;;5116527;28;20287;-84
2023/10/20 07:52:44;;;;;;;8.63;7.47;;;7.80;99.90;;;;;;5114875;28;20284;-83
2023/10/20 07:55:11;;;;;;;8.73;7.85;;;7.90;99.90;;;;;;5116426;28;20285;-83
2023/10/20 07:57:38;;;;;;;9.30;8.07;;;7.80;99.90;;;;;;5115861;28;20223;-80
2023/10/20 08:00:13;;;;;;;8.43;7.53;;;7.90;99.90;;;;;;5115573;28;20230;-83
2023/10/20 08:02:41;;;;;;;8.35;7.50;;;7.90;99.90;;;;;;5116195;28;20233;-80
2023/10/20 08:05:10;;;;;;;9.40;8.50;;;8.00;99.90;;;;;;5116072;28;20226;-80
2023/10/20 08:07:38;;;;;;;13.52;8.35;;;7.90;99.90;;;;;;5115607;28;20222;-80
2023/10/20 08:10:07;;;;;;;8.60;7.78;;;7.90;99.90;;;;;;5116018;28;20230;-80
2023/10/20 08:12:34;;;;;;;7.75;6.97;;;7.80;99.90;;;;;;5116625;28;20565;-83
2023/10/20 08:15:03;;;;;;;9.00;7.85;;;7.80;99.90;;;;;;5114788;28;20222;-80
2023/10/20 08:17:29;;;;;;;8.15;7.35;;;7.70;99.90;;;;;;5115394;28;20299;-80
2023/10/20 08:20:00;;;;;;;9.98;7.95;;;7.70;99.90;;;;;;5115841;28;20668;-80
2023/10/20 08:22:43;;;;;;;8.48;7.68;;;7.70;99.90;;;;;;5105984;28;20231;-80
2023/10/20 08:25:10;;;;;;;8.20;7.40;;;7.70;99.90;;;;;;5115357;28;20233;-80
2023/10/20 08:27:37;;;;;;;8.48;7.68;;;7.70;99.90;;;;;;5117188;28;20222;-83
2023/10/20 08:30:05;;;;;;;7.57;6.85;;;7.70;99.90;;;;;;5115793;28;20226;-84
2023/10/20 08:32:34;;;;;;;7.70;7.07;;;7.70;99.90;;;;;;5116256;28;20219;-81
2023/10/20 08:35:03;;;;;;;6.97;6.38;;;7.70;99.90;;;;;;5115083;28;20280;-80
2023/10/20 08:37:30;;;;;;;7.15;6.35;;;7.60;99.90;;;;;;5116483;28;20230;-81
2023/10/20 08:40:21;;;;;;;6.03;5.45;;;7.60;99.90;;;;;;5104853;28;20226;-80
2023/10/20 08:42:51;;;;;;;7.90;6.25;;;7.70;99.90;;;;;;5102782;28;20235;-81
2023/10/20 08:45:19;;;;;;;6.78;6.13;;;7.70;99.90;;;;;;5114621;28;20613;-81
2023/10/20 08:47:46;;;;;;;8.05;7.35;;;7.70;99.90;;;;;;5115199;28;20345;-80
2023/10/20 08:50:19;;;;;;;8.35;7.30;;;7.60;99.90;;;;;;5114812;28;20227;-80
2023/10/20 08:52:46;;;;;;;11.00;8.75;;;7.70;99.90;;;;;;5109880;28;20206;-80
2023/10/20 08:55:13;;;;;;;8.95;7.75;;;7.60;99.90;;;;;;5113859;28;20218;-80
2023/10/20 08:57:40;;;;;;;7.68;7.05;;;7.70;99.90;;;;;;5114492;28;20226;-80
2023/10/20 09:00:20;;;;;;;9.52;7.38;;;7.70;99.90;;;;;;5115126;28;20274;-80
2023/10/20 09:02:47;;;;;;;8.05;6.80;;;7.70;99.90;;;;;;5114249;28;20695;-80
2023/10/20 09:05:20;;;;;;;7.28;6.68;;;7.80;99.90;;;;;;5103101;28;20261;-80
2023/10/20 09:07:57;;;;;;;9.00;7.43;;;7.80;99.90;;;;;;5114131;28;20219;-80
2023/10/20 09:10:31;;;;;;;8.82;7.35;;;7.80;99.90;;;;;;5114414;28;20233;-80
2023/10/20 09:12:58;;;;;;;8.43;7.45;;;7.80;99.90;;;;;;5114195;28;20294;-80
2023/10/20 09:15:26;;;;;;;9.13;8.25;;;7.80;99.90;;;;;;5114608;28;20235;-81
2023/10/20 09:21:18;;;;;;;8.02;7.25;;;7.70;99.90;;;;;;5112735;28;20222;-81
2023/10/20 09:23:55;;;;;;;7.88;7.13;;;7.80;99.90;;;;;;5113966;28;20214;-81
2023/10/20 09:26:24;;;;;;;8.30;7.50;;;7.80;99.90;;;;;;5105860;28;20553;-81
2023/10/20 09:28:56;;;;;;;8.30;7.50;;;7.70;99.90;;;;;;5074970;28;20226;-80
2023/10/20 09:31:24;;;;;;;7.88;7.18;;;7.80;99.90;;;;;;5114288;28;20241;-81
2023/10/20 09:33:51;;;;;;;10.55;6.50;;;7.80;99.90;;;;;;5114061;28;20230;-81
2023/10/20 09:36:24;;;;;;;8.35;6.38;;;7.70;99.90;;;;;;5114333;28;20231;-81
2023/10/20 09:38:52;;;;;;;8.82;8.02;;;7.70;99.90;;;;;;5113544;28;20226;-80
2023/10/20 09:41:22;;;;;;;8.77;7.32;;;7.80;99.90;;;;;;5114317;28;20222;-84
2023/10/20 09:43:53;;;;;;;6.85;6.15;;;7.70;99.90;;;;;;5113838;28;20249;-81
2023/10/20 09:46:33;;;;;;;7.85;6.07;;;7.80;99.90;;;;;;5115572;28;20223;-81
2023/10/20 09:49:01;;;;;;;6.53;5.47;;;7.80;99.90;;;;;;5113552;28;20226;-79
2023/10/20 09:51:33;;;;;;;8.00;6.28;;;7.80;99.90;;;;;;5114048;28;20294;-83
2023/10/20 09:54:00;;;;;;;5.85;5.25;;;7.80;99.90;;;;;;5113269;28;20280;-83
2023/10/20 09:56:27;;;;;;;9.00;6.07;;;7.80;99.90;;;;;;5113980;28;20237;-80
2023/10/20 09:59:00;;;;;;;6.70;6.10;;;7.80;99.90;;;;;;5113508;28;20223;-79
2023/10/20 10:01:29;;;;;;;7.07;6.38;;;7.80;99.90;;;;;;5101957;28;20904;-79
2023/10/20 10:04:03;;;;;;;6.63;5.65;;;7.80;99.90;;;;;;5113576;28;20232;-80
2023/10/20 10:06:36;;;;;;;7.18;6.50;;;7.70;99.90;;;;;;5113487;28;20218;-80
2023/10/20 10:09:05;;;;;;;6.43;5.80;;;7.70;99.90;;;;;;5113687;28;20226;-80
2023/10/20 10:11:34;;;;;;;9.15;6.18;;;7.70;99.90;;;;;;5113934;28;20284;-84
2023/10/20 10:14:05;;;;;;;9.38;7.43;;;7.60;99.90;;;;;;5113532;28;20226;-81
2023/10/20 10:16:33;;;;;;;7.10;6.30;;;7.60;99.90;;;;;;5113523;28;20230;-84
2023/10/20 10:19:11;;;;;;;6.07;5.47;;;7.70;99.90;;;;;;5113425;28;20234;-81
2023/10/20 10:21:54;;;;;;;8.82;6.50;;;7.60;99.90;;;;;;5113870;28;20310;-84
2023/10/20 10:24:27;;;;;;;6.13;5.63;;;7.60;99.90;;;;;;5101221;28;20687;-84
2023/10/20 10:26:56;;;;;;;6.80;6.00;;;7.60;99.90;;;;;;5112377;28;20562;-84
2023/10/20 10:29:48;;;;;;;6.53;5.93;;;7.60;99.90;;;;;;5101660;28;20226;-84
2023/10/20 10:32:17;;;;;;;8.32;6.25;;;7.60;99.90;;;;;;5113419;28;20610;-83
2023/10/20 10:34:45;;;;;;;6.85;6.15;;;7.60;99.90;;;;;;5409052;22;20195;-84
2023/10/20 10:37:34;;;;;;;6.65;5.97;;;7.60;99.90;;;;;;5091567;28;20215;-84
2023/10/20 10:40:08;;;;;;;6.28;5.70;;;7.60;99.90;;;;;;5082742;28;20227;-83
2023/10/20 10:42:39;;;;;;;7.28;6.30;;;7.70;99.90;;;;;;5093140;28;20619;-83
2023/10/20 10:45:24;;;;;;;6.60;6.05;;;7.70;99.90;;;;;;5092419;28;20227;-84
2023/10/20 10:47:52;;;;;;;5.80;5.30;;;7.60;99.90;;;;;;5093672;28;20219;-84
2023/10/20 10:50:31;;;;;;;4.90;4.40;;;7.60;99.90;;;;;;5091666;28;20597;-83
2023/10/20 10:53:00;;;;;;;5.53;5.00;;;7.60;99.90;;;;;;5092407;28;20318;-83
2023/10/20 10:55:28;;;;;;;7.25;6.22;;;7.60;99.90;;;;;;5443488;22;20306;-82
2023/10/20 10:57:55;;;;;;;5.80;5.28;;;7.50;99.90;;;;;;5133112;27;20537;-83
2023/10/20 11:00:23;;;;;;;5.28;4.88;;;7.50;99.90;;;;;;5133186;27;20246;-83
2023/10/20 11:02:52;;;;;;;6.38;5.80;;;7.60;99.90;;;;;;5131994;27;20253;-81
2023/10/20 11:05:23;;;;;;;5.93;5.38;;;7.60;99.90;;;;;;5133786;27;20306;-81
2023/10/20 11:08:01;;;;;;;8.00;6.03;;;7.60;99.90;;;;;;5124746;27;20233;-81
2023/10/20 11:10:33;;;;;;;6.30;5.70;;;7.60;99.90;;;;;;5133683;27;20281;-84
2023/10/20 11:13:01;;;;;;;6.72;6.13;;;7.50;99.90;;;;;;5133444;27;20225;-83
2023/10/20 11:15:30;;;;;;;6.32;5.72;;;7.50;99.90;;;;;;5134026;27;20226;-83
2023/10/20 11:17:58;;;;;;;7.13;6.35;;;7.50;99.90;;;;;;5133575;27;20223;-81
2023/10/20 11:20:42;;;;;;;5.55;5.05;;;7.60;99.90;;;;;;5137417;27;20590;-83
2023/10/20 11:23:14;;;;;;;7.68;5.20;;;7.50;99.90;;;;;;5136490;27;20221;-83
2023/10/20 11:25:48;;;;;;;9.85;5.25;;;7.40;99.90;;;;;;5137489;27;20225;-83
2023/10/20 11:28:23;;;;;;;5.75;5.25;;;7.50;99.90;;;;;;5126382;27;20236;-83
2023/10/20 11:30:53;;;;;;;5.78;5.28;;;7.40;99.90;;;;;;5126190;27;20671;-80
2023/10/20 11:33:21;;;;;;;6.82;5.65;;;7.50;99.90;;;;;;5136641;27;20338;-80
2023/10/20 11:35:48;;;;;;;6.65;6.00;;;7.50;99.90;;;;;;5136895;27;20241;-80
2023/10/20 11:38:21;;;;;;;6.15;5.65;;;7.50;99.90;;;;;;5115143;27;20226;-80
2023/10/20 11:40:54;;;;;;;7.93;5.35;;;7.50;99.90;;;;;;5137442;27;20221;-80
2023/10/20 11:43:21;;;;;;;7.10;6.40;;;7.60;99.90;;;;;;5136195;27;20241;-80
2023/10/20 11:45:48;;;;;;;6.88;6.13;;;7.60;99.90;;;;;;5137644;27;20553;-82
2023/10/20 11:48:15;;;;;;;7.00;6.30;;;7.60;99.90;;;;;;5136409;27;20218;-85
2023/10/20 11:50:42;;;;;;;5.75;5.20;;;7.70;99.90;;;;;;5139407;27;20279;-82
2023/10/20 11:53:10;;;;;;;5.75;5.25;;;7.70;99.90;;;;;;5138129;27;20593;-81
2023/10/20 11:55:38;;;;;;;6.10;5.50;;;7.70;99.90;;;;;;5137110;27;20275;-80
2023/10/20 11:58:06;;;;;;;7.75;5.40;;;7.70;99.90;;;;;;5137775;27;20233;-80
2023/10/20 12:00:41;;;;;;;6.00;5.25;;;7.70;99.90;;;;;;5129696;27;20223;-80
2023/10/20 12:03:10;;;;;;;6.38;4.95;;;7.70;99.90;;;;;;5133330;27;20235;-80
2023/10/20 12:05:40;;;;;;;8.25;5.00;;;7.70;99.90;;;;;;5143058;27;20278;-84
2023/10/20 12:08:13;;;;;;;5.05;4.57;;;7.70;99.90;;;;;;5145588;27;20279;-82
2023/10/20 12:10:42;;;;;;;5.47;4.93;;;7.70;99.90;;;;;;5136215;27;20222;-86
2023/10/20 12:13:10;;;;;;;5.22;4.75;;;7.70;99.90;;;;;;5133406;27;20226;-83
2023/10/20 12:15:37;;;;;;;5.57;5.00;;;7.80;99.90;;;;;;5148179;27;20226;-83
2023/10/20 12:18:23;;;;;;;;;;;;;;;;;;;;;
2023/10/20 12:20:53;;;;;;;4.68;4.35;;;7.80;99.90;;;;;;5144233;27;20900;-83
2023/10/20 12:23:46;;;;;;;4.43;4.03;;;7.90;99.90;;;;;;5140060;27;20295;-82
2023/10/20 12:26:26;;;;;;;4.25;3.95;;;7.90;99.90;;;;;;5142936;27;20218;-83
2023/10/20 12:28:54;;;;;;;3.38;3.08;;;7.80;99.90;;;;;;5139339;27;20222;-81
2023/10/20 12:31:28;;;;;;;3.92;3.53;;;7.80;99.90;;;;;;5132899;27;20217;-80
2023/10/20 12:33:56;;;;;;;3.63;3.33;;;7.80;99.90;;;;;;5147088;27;20273;-81
2023/10/20 12:36:24;;;;;;;4.20;3.83;;;7.80;99.90;;;;;;5124470;27;20221;-85
2023/10/20 12:38:55;;;;;;;4.75;4.35;;;7.70;99.90;;;;;;5148005;27;20285;-84
2023/10/20 12:41:32;;;;;;;3.60;3.30;;;7.70;99.90;;;;;;5121101;27;20309;-83
2023/10/20 12:43:59;;;;;;;3.03;2.83;;;7.80;99.90;;;;;;5115758;27;20374;-84
2023/10/20 12:46:26;;;;;;;3.50;3.30;;;7.80;99.90;;;;;;5143914;27;20671;-84
2023/10/20 12:48:53;;;;;;;3.40;3.20;;;7.80;99.90;;;;;;5143039;27;20225;-84
2023/10/20 12:51:29;;;;;;;3.35;2.75;;;7.80;99.90;;;;;;5129137;27;20241;-81
2023/10/20 12:53:58;;;;;;;2.63;2.42;;;7.70;99.90;;;;;;5138397;27;20240;-81
2023/10/20 12:56:27;;;;;;;3.15;2.67;;;7.70;99.90;;;;;;5142359;27;20702;-81
2023/10/20 12:58:58;;;;;;;4.10;3.03;;;7.70;99.90;;;;;;5144795;27;20233;-83
2023/10/20 13:01:25;;;;;;;2.75;2.55;;;7.70;99.90;;;;;;5132830;27;20225;-83
2023/10/20 13:03:52;;;;;;;3.13;2.85;;;7.70;99.90;;;;;;5135938;27;20234;-82
2023/10/20 13:09:34;;;;;;;3.35;2.85;;;7.80;99.90;;;;;;5135249;27;20228;-82
2023/10/20 13:12:12;;;;;;;2.58;2.20;;;7.80;99.90;;;;;;5125422;27;20304;-83
2023/10/20 13:14:39;;;;;;;2.20;2.00;;;7.80;99.90;;;;;;5125363;27;20229;-84
2023/10/20 13:17:06;;;;;;;2.70;2.35;;;7.80;99.90;;;;;;5124830;27;20250;-83
2023/10/20 13:23:07;;;;;;;2.50;2.30;;;7.80;99.90;;;;;;5072710;27;20570;-84
2023/10/20 13:26:05;;;;;;;2.72;2.50;;;7.70;99.90;;;;;;5116892;27;20222;-85
2023/10/20 13:31:21;;;;;;;3.75;3.30;;;7.70;99.90;;;;;;5134145;27;20282;-84
2023/10/20 13:33:51;;;;;;;2.45;2.25;;;7.60;99.90;;;;;;5104550;27;20226;-82
2023/10/20 13:36:19;;;;;;;2.85;2.15;;;7.60;99.90;;;;;;5123988;27;20236;-82
2023/10/20 13:39:21;;;;;;;2.13;2.03;;;7.60;99.90;;;;;;5137928;27;20214;-82
2023/10/20 13:41:55;;;;;;;2.80;2.50;;;7.60;99.90;;;;;;5106287;27;20225;-81
2023/10/20 13:44:26;;;;;;;2.83;1.90;;;7.70;99.90;;;;;;5121030;27;20226;-82